Time;durP1;ratioP1;P1;durP2;ratioP2;P2;SDS_P1;SDS_P2;PMS_P1;PMS_P2;Temp;Humidity;BMP_temperature;BMP_pressure;BME280_temperature;BME280_humidity;BME280_pressure;Samples;Min_cycle;Max_cycle;Signal;HPM_P1;HPM_P2
2023/07/19 00:04:40;;;;;;;14.70;2.83;;;13.80;99.90;;;;;;1946435;72;27008;-87
2023/07/19 00:07:28;;;;;;;19.57;2.53;;;13.70;99.90;;;;;;1862874;75;25714;-86
2023/07/19 00:10:17;;;;;;;15.63;2.70;;;13.70;99.90;;;;;;1839549;76;25224;-87
2023/07/19 00:13:06;;;;;;;21.60;3.17;;;13.70;99.90;;;;;;1822617;78;25292;-86
2023/07/19 00:15:55;;;;;;;23.53;2.40;;;13.80;99.90;;;;;;1822579;78;25305;-87
2023/07/19 00:18:43;;;;;;;16.67;2.10;;;13.80;99.90;;;;;;1911026;74;25642;-87
2023/07/19 00:21:31;;;;;;;15.13;2.50;;;13.80;99.90;;;;;;1869474;76;25214;-87
2023/07/19 00:24:20;;;;;;;13.07;2.23;;;13.70;99.90;;;;;;1848869;77;25351;-88
2023/07/19 00:27:09;;;;;;;17.47;2.80;;;13.70;99.90;;;;;;1877754;76;25281;-86
2023/07/19 00:29:58;;;;;;;15.80;2.80;;;13.70;99.90;;;;;;1822013;78;25242;-87
2023/07/19 00:32:46;;;;;;;18.23;2.50;;;13.60;99.90;;;;;;1913722;74;25217;-87
2023/07/19 00:35:36;;;;;;;22.03;2.70;;;13.50;99.90;;;;;;1878127;76;25226;-86
2023/07/19 00:41:05;;;;;;;21.80;2.60;;;13.60;99.90;;;;;;1940145;72;27117;-87
2023/07/19 00:46:42;;;;;;;16.70;3.10;;;13.50;99.90;;;;;;1957701;72;26979;-88
2023/07/19 00:49:32;;;;;;;16.87;2.70;;;13.60;99.90;;;;;;1930456;73;25811;-88
2023/07/19 00:52:21;;;;;;;20.20;2.53;;;13.50;99.90;;;;;;1933529;73;25283;-89
2023/07/19 00:55:11;;;;;;;17.53;2.40;;;13.50;99.90;;;;;;1928493;73;25228;-87
2023/07/19 00:58:00;;;;;;;26.47;2.73;;;13.50;99.90;;;;;;1934543;73;25758;-87
2023/07/19 01:00:49;;;;;;;15.73;2.60;;;13.50;99.90;;;;;;1921185;72;25253;-88
2023/07/19 01:03:38;;;;;;;21.13;2.73;;;13.60;99.90;;;;;;1935506;72;25216;-88
2023/07/19 01:06:27;;;;;;;19.50;3.60;;;13.60;99.90;;;;;;1932022;72;25710;-88
2023/07/19 01:09:15;;;;;;;15.73;3.07;;;13.60;99.90;;;;;;1936865;73;25510;-88
2023/07/19 01:12:05;;;;;;;14.37;2.93;;;13.60;99.90;;;;;;1919431;73;25289;-88
2023/07/19 01:14:54;;;;;;;14.70;2.70;;;13.50;99.90;;;;;;1925061;72;25336;-88
2023/07/19 01:17:42;;;;;;;15.33;1.97;;;13.50;99.90;;;;;;1922899;73;25228;-88
2023/07/19 01:23:10;;;;;;;7.63;1.80;;;13.50;99.90;;;;;;1950387;72;26987;-87
2023/07/19 01:25:59;;;;;;;13.43;2.30;;;13.40;99.90;;;;;;1919685;73;25260;-87
2023/07/19 01:31:32;;;;;;;8.30;2.20;;;13.40;99.90;;;;;;1946392;72;27530;-87
2023/07/19 01:34:21;;;;;;;10.70;1.97;;;13.40;99.90;;;;;;1925337;73;25374;-87
2023/07/19 01:37:10;;;;;;;12.23;2.10;;;13.50;99.90;;;;;;1925837;73;25310;-87
2023/07/19 01:40:01;;;;;;;14.00;2.20;;;13.40;99.90;;;;;;1928889;73;25752;-87
2023/07/19 01:42:50;;;;;;;10.67;1.87;;;13.40;99.90;;;;;;1913539;73;25577;-87
2023/07/19 01:45:39;;;;;;;15.60;2.10;;;13.40;99.90;;;;;;1893029;73;25281;-87
2023/07/19 01:48:28;;;;;;;15.33;1.87;;;13.30;99.90;;;;;;1895860;73;25303;-87
2023/07/19 01:51:17;;;;;;;13.53;2.63;;;13.30;99.90;;;;;;1901584;74;25227;-87
2023/07/19 01:54:05;;;;;;;15.27;2.10;;;13.30;99.90;;;;;;1907282;73;25337;-87
2023/07/19 01:56:54;;;;;;;16.27;2.50;;;13.40;99.90;;;;;;1918519;73;25218;-88
2023/07/19 02:02:24;;;;;;;17.27;1.90;;;13.30;99.90;;;;;;1934454;72;27039;-87
2023/07/19 02:07:52;;;;;;;15.20;2.17;;;13.40;99.90;;;;;;1923921;72;27085;-86
2023/07/19 02:10:42;;;;;;;12.97;2.00;;;13.50;99.90;;;;;;1899003;73;25203;-86
2023/07/19 02:13:30;;;;;;;13.20;1.73;;;13.50;99.90;;;;;;1860569;76;25708;-87
2023/07/19 02:16:19;;;;;;;12.30;1.80;;;13.50;99.90;;;;;;1905093;73;25211;-87
2023/07/19 02:19:09;;;;;;;14.40;2.00;;;13.50;99.90;;;;;;1858820;75;25308;-87
2023/07/19 02:21:57;;;;;;;22.93;2.17;;;13.50;99.90;;;;;;1912039;73;25447;-87
2023/07/19 02:24:46;;;;;;;16.60;1.60;;;13.50;99.90;;;;;;1866490;76;25758;-87
2023/07/19 02:27:35;;;;;;;7.50;1.67;;;13.50;99.90;;;;;;1905748;73;25242;-88
2023/07/19 02:30:24;;;;;;;8.17;1.80;;;13.50;99.90;;;;;;1862384;76;25200;-87
2023/07/19 02:33:14;;;;;;;7.63;1.70;;;13.50;99.90;;;;;;1908464;74;25194;-88
2023/07/19 02:36:03;;;;;;;7.87;2.10;;;13.50;99.90;;;;;;1853961;76;25700;-88
2023/07/19 02:38:52;;;;;;;8.77;1.77;;;13.50;99.90;;;;;;1907311;73;25318;-87
2023/07/19 02:41:41;;;;;;;9.33;1.77;;;13.40;99.90;;;;;;1835302;76;25239;-87
2023/07/19 02:44:30;;;;;;;8.83;1.67;;;13.40;99.90;;;;;;1849173;76;25384;-87
2023/07/19 02:50:03;;;;;;;7.73;1.80;;;13.40;99.90;;;;;;1929976;72;27056;-87
2023/07/19 02:52:52;;;;;;;9.10;1.83;;;13.40;99.90;;;;;;1921190;73;25798;-87
2023/07/19 02:55:40;;;;;;;8.27;1.90;;;13.30;99.90;;;;;;1940688;73;25261;-87
2023/07/19 02:58:29;;;;;;;10.87;2.40;;;13.30;99.90;;;;;;1943634;73;25663;-87
2023/07/19 03:01:18;;;;;;;9.67;1.70;;;13.30;99.90;;;;;;1928039;73;25230;-87
2023/07/19 03:06:49;;;;;;;7.97;1.33;;;13.30;99.90;;;;;;1929105;72;27044;-87
2023/07/19 03:09:38;;;;;;;9.17;1.50;;;13.40;99.90;;;;;;1898280;74;25297;-87
2023/07/19 03:12:27;;;;;;;4.07;1.20;;;13.30;99.90;;;;;;1905264;75;25150;-87
2023/07/19 03:17:56;;;;;;;6.73;1.40;;;13.40;99.90;;;;;;1941747;72;26994;-87
2023/07/19 03:20:44;;;;;;;6.83;2.70;;;13.40;99.90;;;;;;1897075;74;25664;-86
2023/07/19 03:23:33;;;;;;;6.33;2.90;;;13.50;99.90;;;;;;1894905;75;26046;-87
2023/07/19 03:29:02;;;;;;;6.70;2.57;;;13.70;99.90;;;;;;1940723;72;27058;-87
2023/07/19 03:31:50;;;;;;;5.97;3.10;;;13.80;99.90;;;;;;1882517;75;25813;-87
2023/07/19 03:34:39;;;;;;;8.33;2.33;;;13.80;99.90;;;;;;1887538;75;25625;-87
2023/07/19 03:40:10;;;;;;;6.33;1.80;;;13.80;99.90;;;;;;1951576;71;27000;-87
2023/07/19 03:42:59;;;;;;;2.47;1.20;;;14.10;99.90;;;;;;1905346;73;25246;-87
2023/07/19 03:48:27;;;;;;;2.93;1.20;;;14.70;99.90;;;;;;1928623;72;27022;-87
2023/07/19 03:51:15;;;;;;;7.07;1.93;;;15.10;99.90;;;;;;1906078;75;25248;-87
2023/07/19 03:54:04;;;;;;;5.10;2.20;;;15.20;99.90;;;;;;1902517;75;25168;-87
2023/07/19 03:56:53;;;;;;;9.00;3.10;;;15.40;99.90;;;;;;1909057;75;25251;-87
2023/07/19 03:59:41;;;;;;;6.67;3.47;;;15.80;99.90;;;;;;1905361;75;25755;-85
2023/07/19 04:02:30;;;;;;;9.33;4.23;;;16.10;99.90;;;;;;1895105;75;25291;-87
2023/07/19 04:05:19;;;;;;;10.50;4.90;;;16.30;99.90;;;;;;1881275;75;25223;-87
2023/07/19 04:08:08;;;;;;;7.30;4.17;;;16.50;99.90;;;;;;1892988;75;25744;-87
2023/07/19 04:10:58;;;;;;;6.17;3.00;;;16.70;99.90;;;;;;1886365;75;25207;-88
2023/07/19 04:13:46;;;;;;;4.07;2.17;;;17.10;99.90;;;;;;1903659;75;25166;-88
2023/07/19 04:16:35;;;;;;;3.23;1.70;;;17.50;99.90;;;;;;1892999;75;25301;-88
2023/07/19 04:19:24;;;;;;;5.93;2.57;;;17.20;99.90;;;;;;1890536;75;25164;-88
2023/07/19 04:22:12;;;;;;;8.70;4.10;;;16.80;99.90;;;;;;1896253;75;25175;-88
2023/07/19 04:25:01;;;;;;;6.60;4.10;;;17.00;99.90;;;;;;1890743;75;25301;-88
2023/07/19 04:27:50;;;;;;;9.00;2.50;;;17.20;99.90;;;;;;1886990;75;25324;-88
2023/07/19 04:33:24;;;;;;;3.77;3.10;;;17.80;99.90;;;;;;1943087;72;27449;-88
2023/07/19 04:36:16;;;;;;;5.43;3.33;;;18.00;99.90;;;;;;1892597;74;25280;-87
2023/07/19 04:41:49;;;;;;;5.03;2.80;;;17.90;99.90;;;;;;1916458;72;27264;-88
2023/07/19 04:47:17;;;;;;;4.90;2.53;;;17.60;99.90;;;;;;1928250;72;27101;-88
2023/07/19 04:52:47;;;;;;;3.87;2.00;;;17.10;99.90;;;;;;1927142;72;27049;-88
2023/07/19 04:55:36;;;;;;;3.67;2.00;;;17.20;99.90;;;;;;1898801;74;25299;-88
2023/07/19 04:58:25;;;;;;;5.80;2.23;;;17.10;99.90;;;;;;1903139;73;25293;-88
2023/07/19 05:01:13;;;;;;;6.80;2.33;;;17.20;99.90;;;;;;1910769;74;25226;-88
2023/07/19 05:04:02;;;;;;;4.67;2.27;;;17.20;99.90;;;;;;1875370;75;25301;-88
2023/07/19 05:06:51;;;;;;;5.07;2.50;;;17.50;99.90;;;;;;1872848;75;25316;-88
2023/07/19 05:09:40;;;;;;;5.00;2.10;;;17.80;99.90;;;;;;1866052;76;25362;-88
2023/07/19 05:12:29;;;;;;;6.03;2.40;;;17.90;99.90;;;;;;1866541;75;25767;-88
2023/07/19 05:15:18;;;;;;;5.17;2.43;;;18.00;99.90;;;;;;1848022;76;25179;-88
2023/07/19 05:20:49;;;;;;;9.50;3.60;;;18.30;99.90;;;;;;1936889;72;27117;-88
2023/07/19 05:23:38;;;;;;;8.13;3.60;;;18.00;99.90;;;;;;1900271;74;25217;-88
2023/07/19 05:26:27;;;;;;;6.90;3.03;;;17.80;99.90;;;;;;1856661;76;25273;-88
2023/07/19 05:29:15;;;;;;;12.97;3.30;;;17.50;99.90;;;;;;1874955;76;25291;-88
2023/07/19 05:34:44;;;;;;;4.00;2.27;;;17.90;99.90;;;;;;1938771;72;27613;-88
2023/07/19 05:37:33;;;;;;;3.90;2.40;;;17.90;99.90;;;;;;1914087;73;25222;-88
2023/07/19 05:40:21;;;;;;;4.07;1.50;;;18.00;99.90;;;;;;1872556;76;25888;-88
2023/07/19 05:43:10;;;;;;;3.50;1.30;;;17.70;99.90;;;;;;1795108;78;25342;-88
2023/07/19 05:46:05;;;;;;;3.13;1.20;;;17.80;99.90;;;;;;1816667;77;25737;-88
2023/07/19 05:48:54;;;;;;;1.03;1.00;;;18.00;99.90;;;;;;1844451;77;25847;-88
2023/07/19 05:51:43;;;;;;;0.97;0.80;;;18.00;99.90;;;;;;1874305;75;26715;-88
2023/07/19 05:54:32;;;;;;;0.80;0.80;;;18.20;99.90;;;;;;1845726;77;25272;-88
2023/07/19 06:00:06;;;;;;;1.90;0.80;;;18.00;99.90;;;;;;1914925;72;27069;-88
2023/07/19 06:05:36;;;;;;;1.47;0.90;;;18.20;99.90;;;;;;1939301;72;27121;-88
2023/07/19 06:08:24;;;;;;;4.93;0.90;;;18.00;99.90;;;;;;1915573;74;25172;-88
2023/07/19 06:11:12;;;;;;;5.40;0.97;;;18.10;99.90;;;;;;1875779;76;25631;-88
2023/07/19 06:14:02;;;;;;;3.17;1.20;;;18.50;99.90;;;;;;1822451;77;25207;-88
2023/07/19 06:16:51;;;;;;;0.80;0.80;;;18.50;99.90;;;;;;1904229;74;25586;-88
2023/07/19 06:19:39;;;;;;;0.77;0.77;;;18.20;99.90;;;;;;1857163;76;25323;-88
2023/07/19 06:25:10;;;;;;;1.47;0.90;;;18.50;99.90;;;;;;1953967;72;27028;-88
2023/07/19 06:27:59;;;;;;;0.77;0.63;;;18.20;99.90;;;;;;1919347;73;25303;-88
2023/07/19 06:30:47;;;;;;;1.10;0.80;;;18.20;99.90;;;;;;1923233;73;25336;-88
2023/07/19 06:33:36;;;;;;;3.30;0.83;;;17.90;99.90;;;;;;1923784;73;25697;-88
2023/07/19 06:36:26;;;;;;;2.23;0.70;;;17.90;99.90;;;;;;1925209;73;25172;-88
2023/07/19 06:39:15;;;;;;;4.53;0.80;;;17.70;99.90;;;;;;1928636;73;25291;-88
2023/07/19 06:42:05;;;;;;;3.03;0.83;;;18.00;99.90;;;;;;1917115;73;25768;-88
2023/07/19 06:47:34;;;;;;;0.60;0.60;;;18.50;99.90;;;;;;1926256;72;27064;-89
2023/07/19 06:50:23;;;;;;;0.83;0.77;;;18.60;99.90;;;;;;1894285;73;25664;-88
2023/07/19 06:53:11;;;;;;;5.80;0.77;;;18.50;99.90;;;;;;1867612;76;25320;-88
2023/07/19 06:56:01;;;;;;;2.23;0.73;;;18.50;99.90;;;;;;1839181;78;25271;-88
2023/07/19 06:58:50;;;;;;;1.70;0.70;;;18.20;99.90;;;;;;1839262;76;25247;-88
2023/07/19 07:01:38;;;;;;;1.13;0.80;;;17.60;99.90;;;;;;1860932;76;25262;-88
2023/07/19 07:04:27;;;;;;;1.13;0.80;;;17.50;99.90;;;;;;1850134;76;25225;-88
2023/07/19 07:07:18;;;;;;;1.77;0.80;;;17.70;99.90;;;;;;1857635;76;25598;-88
2023/07/19 07:10:09;;;;;;;1.63;0.80;;;17.40;99.90;;;;;;1849321;76;25246;-88
2023/07/19 07:12:58;;;;;;;0.83;0.57;;;17.90;99.90;;;;;;1871516;76;25178;-88
2023/07/19 07:15:48;;;;;;;0.70;0.70;;;18.30;99.90;;;;;;1836640;77;25261;-89
2023/07/19 07:18:37;;;;;;;0.50;0.50;;;18.20;99.90;;;;;;1853711;75;25785;-89
2023/07/19 07:21:26;;;;;;;1.17;0.60;;;18.10;99.90;;;;;;1803411;78;25290;-88
2023/07/19 07:24:15;;;;;;;0.60;0.57;;;18.00;99.90;;;;;;1904911;73;25338;-88
2023/07/19 07:29:43;;;;;;;0.83;0.67;;;18.00;99.90;;;;;;1931800;72;27563;-88
2023/07/19 07:32:32;;;;;;;0.90;0.70;;;18.30;99.90;;;;;;1912731;75;25173;-88
2023/07/19 07:35:21;;;;;;;0.70;0.70;;;17.90;99.90;;;;;;1890172;74;25218;-88
2023/07/19 07:38:10;;;;;;;1.03;0.70;;;18.20;99.90;;;;;;1911242;73;25291;-88
2023/07/19 07:41:03;;;;;;;2.53;0.70;;;18.30;99.90;;;;;;1900648;75;25281;-88
2023/07/19 07:43:51;;;;;;;1.50;0.90;;;18.30;99.90;;;;;;1882891;74;25271;-89
2023/07/19 07:49:20;;;;;;;2.03;1.83;;;18.30;99.90;;;;;;1949730;72;27063;-88
2023/07/19 07:52:11;;;;;;;1.40;1.00;;;18.40;99.90;;;;;;1929194;73;25752;-88
2023/07/19 07:55:00;;;;;;;1.00;0.90;;;18.40;99.90;;;;;;1935755;73;25236;-88
2023/07/19 07:57:49;;;;;;;2.30;1.50;;;18.80;99.90;;;;;;1929883;73;25218;-88
2023/07/19 08:03:21;;;;;;;2.43;1.07;;;19.20;99.90;;;;;;1947648;72;27465;-89
2023/07/19 08:08:50;;;;;;;2.17;1.10;;;18.90;99.90;;;;;;1924771;72;27174;-88
2023/07/19 08:11:38;;;;;;;1.43;1.33;;;18.70;99.90;;;;;;1904842;73;25697;-89
2023/07/19 08:14:27;;;;;;;1.40;1.30;;;18.70;99.90;;;;;;1892768;75;25235;-88
2023/07/19 08:19:56;;;;;;;1.97;1.67;;;18.60;99.90;;;;;;1933897;72;27052;-88
2023/07/19 08:22:45;;;;;;;1.93;1.60;;;18.60;99.90;;;;;;1910372;73;25167;-89
2023/07/19 08:25:33;;;;;;;1.70;1.60;;;18.80;99.90;;;;;;1897095;74;25257;-88
2023/07/19 08:28:23;;;;;;;5.23;2.53;;;19.20;99.90;;;;;;1908745;74;25331;-89
2023/07/19 08:31:12;;;;;;;3.83;2.53;;;19.40;99.90;;;;;;1911535;74;25214;-89
2023/07/19 08:34:00;;;;;;;2.97;1.93;;;19.40;99.90;;;;;;1900934;74;25260;-89
2023/07/19 08:36:49;;;;;;;0.97;0.93;;;19.30;99.90;;;;;;1895426;75;25231;-89
2023/07/19 08:39:38;;;;;;;1.37;1.00;;;19.00;99.90;;;;;;1911675;74;25657;-89
2023/07/19 08:45:09;;;;;;;0.70;0.70;;;19.20;99.90;;;;;;1932417;72;27031;-88
2023/07/19 08:47:59;;;;;;;0.73;0.70;;;19.40;99.90;;;;;;1900863;75;25243;-89
2023/07/19 08:50:51;;;;;;;1.00;0.87;;;19.20;99.90;;;;;;1897037;73;25758;-88
2023/07/19 08:53:39;;;;;;;0.60;0.60;;;19.20;99.90;;;;;;1887287;75;25176;-89
2023/07/19 08:59:44;;;;;;;1.00;0.70;;;18.70;99.90;;;;;;1959587;71;26826;-89
2023/07/19 09:02:33;;;;;;;0.60;0.50;;;19.10;99.90;;;;;;1949926;73;25787;-89
2023/07/19 09:05:21;;;;;;;1.57;0.60;;;19.00;99.90;;;;;;2017030;70;25193;-89
2023/07/19 09:08:11;;;;;;;1.50;0.70;;;18.90;99.90;;;;;;2030678;69;25795;-89
2023/07/19 09:10:59;;;;;;;0.60;0.60;;;18.80;99.90;;;;;;2023380;70;25182;-89
2023/07/19 09:13:53;;;;;;;5.13;0.73;;;18.80;99.90;;;;;;2021618;69;25140;-89
2023/07/19 09:16:42;;;;;;;1.47;1.13;;;19.10;99.90;;;;;;2026966;69;25173;-89
2023/07/19 09:22:22;;;;;;;3.43;1.50;;;19.30;99.90;;;;;;2038779;69;27490;-89
2023/07/19 09:25:13;;;;;;;3.20;1.10;;;19.30;99.90;;;;;;2015274;69;25278;-89
2023/07/19 09:30:59;;;;;;;2.20;0.97;;;19.40;99.90;;;;;;1934607;72;26950;-90
2023/07/19 10:42:52;;;;;;;0.60;0.60;;;19.10;99.90;;;;;;1952565;69;27053;-92
2023/07/19 11:47:18;;;;;;;1.57;1.20;;;19.90;99.90;;;;;;1932906;72;26971;-90
2023/07/19 11:50:28;;;;;;;1.87;1.47;;;20.10;99.90;;;;;;1906930;74;25198;-89
2023/07/19 11:53:50;;;;;;;2.20;0.80;;;20.30;99.90;;;;;;1872661;76;25241;-90
2023/07/19 11:56:39;;;;;;;0.70;0.70;;;20.50;99.90;;;;;;1812357;78;25324;-90
2023/07/19 12:02:44;;;;;;;3.30;0.93;;;20.20;99.90;;;;;;1869932;76;25216;-86
2023/07/19 12:05:33;;;;;;;0.93;0.70;;;20.50;99.90;;;;;;1849234;76;25198;-87
2023/07/19 12:08:22;;;;;;;1.50;0.80;;;20.50;99.90;;;;;;1861934;76;25299;-87
2023/07/19 12:11:10;;;;;;;0.83;0.77;;;20.80;99.90;;;;;;1911210;73;25681;-86
2023/07/19 12:14:01;;;;;;;0.60;0.60;;;20.90;99.90;;;;;;1857914;76;25312;-87
2023/07/19 12:16:50;;;;;;;1.80;0.77;;;20.60;99.90;;;;;;1847391;76;25264;-87
2023/07/19 12:22:18;;;;;;;1.37;0.60;;;20.40;99.90;;;;;;1927870;72;27071;-88
2023/07/19 12:25:11;;;;;;;0.63;0.63;;;20.30;99.90;;;;;;1908261;74;25190;-88
2023/07/19 12:30:40;;;;;;;2.00;0.70;;;19.90;99.90;;;;;;1933800;72;27458;-88
2023/07/19 12:33:29;;;;;;;0.80;0.80;;;19.90;99.90;;;;;;1905369;73;25762;-88
2023/07/19 12:36:18;;;;;;;0.77;0.77;;;19.60;99.90;;;;;;1912893;75;25749;-87
2023/07/19 12:39:06;;;;;;;1.33;1.23;;;19.60;99.90;;;;;;1908800;73;25603;-88
2023/07/19 12:41:57;;;;;;;1.03;0.90;;;19.80;99.90;;;;;;1878156;75;25317;-88
2023/07/19 12:44:46;;;;;;;1.87;1.70;;;20.20;99.90;;;;;;1884589;75;25277;-88
2023/07/19 12:47:35;;;;;;;3.87;1.63;;;20.40;99.90;;;;;;1872868;75;25288;-88
2023/07/19 12:50:24;;;;;;;3.97;2.17;;;20.80;99.90;;;;;;1844767;76;25193;-88
2023/07/19 12:53:12;;;;;;;2.60;1.93;;;21.00;99.90;;;;;;1852263;76;25809;-88
2023/07/19 12:56:01;;;;;;;2.83;1.00;;;20.90;99.90;;;;;;1861491;76;25228;-88
2023/07/19 13:01:29;;;;;;;0.80;0.80;;;20.20;99.90;;;;;;1925844;72;27065;-88
2023/07/19 13:04:18;;;;;;;0.80;0.80;;;20.30;99.90;;;;;;1909682;73;25150;-88
2023/07/19 13:09:52;;;;;;;1.00;0.70;;;20.50;99.90;;;;;;1960193;72;27070;-87
2023/07/19 13:12:42;;;;;;;0.77;0.77;;;21.00;99.90;;;;;;1911595;73;25353;-87
2023/07/19 13:15:30;;;;;;;0.70;0.70;;;21.20;99.90;;;;;;1914201;73;25215;-87
2023/07/19 13:18:18;;;;;;;0.70;0.70;;;21.10;99.90;;;;;;1924896;73;25222;-87
2023/07/19 13:21:07;;;;;;;1.33;0.73;;;20.90;99.90;;;;;;1938430;73;25177;-87
2023/07/19 13:23:57;;;;;;;1.70;0.90;;;20.40;99.90;;;;;;1928357;73;25165;-87
2023/07/19 13:26:47;;;;;;;0.80;0.80;;;20.40;99.90;;;;;;1923439;73;25243;-87
2023/07/19 13:29:36;;;;;;;1.23;0.67;;;20.60;99.90;;;;;;1920657;73;25238;-87
2023/07/19 13:32:25;;;;;;;0.73;0.73;;;21.00;99.90;;;;;;1935961;73;25704;-87
2023/07/19 13:35:14;;;;;;;2.13;1.87;;;21.30;99.90;;;;;;1915687;73;25932;-87
2023/07/19 13:40:42;;;;;;;1.27;1.00;;;21.40;99.90;;;;;;1914151;72;27421;-88
2023/07/19 13:46:11;;;;;;;0.90;0.90;;;21.30;99.90;;;;;;1941999;72;26998;-88
2023/07/19 13:49:00;;;;;;;0.87;0.70;;;21.30;99.90;;;;;;1907830;74;25217;-87
2023/07/19 13:51:49;;;;;;;2.87;0.93;;;21.40;99.90;;;;;;1873121;76;25619;-87
2023/07/19 13:57:18;;;;;;;2.23;0.80;;;21.00;99.90;;;;;;1929147;72;27110;-87
2023/07/19 14:00:10;;;;;;;1.37;0.80;;;20.80;99.90;;;;;;1899418;75;25258;-87
2023/07/19 14:02:59;;;;;;;2.43;0.83;;;20.50;99.90;;;;;;1911370;74;25315;-87
2023/07/19 14:05:47;;;;;;;0.70;0.70;;;20.50;99.90;;;;;;1915535;74;25166;-87
2023/07/19 14:08:36;;;;;;;0.80;0.80;;;20.70;99.90;;;;;;1916286;74;25237;-87
2023/07/19 14:11:25;;;;;;;0.80;0.80;;;20.50;99.90;;;;;;1894896;73;25329;-87
2023/07/19 14:14:14;;;;;;;1.17;0.90;;;20.20;99.90;;;;;;1879269;75;25190;-87
2023/07/19 14:17:03;;;;;;;2.73;0.90;;;19.90;99.90;;;;;;1835844;78;25200;-87
2023/07/19 14:19:52;;;;;;;2.23;0.83;;;19.70;99.90;;;;;;1843276;76;25195;-87
2023/07/19 14:22:42;;;;;;;0.87;0.87;;;19.30;99.90;;;;;;1867793;76;25304;-87
2023/07/19 14:28:10;;;;;;;2.23;0.90;;;19.00;99.90;;;;;;1933328;72;27020;-87
2023/07/19 14:30:59;;;;;;;0.93;0.93;;;18.80;99.90;;;;;;1864520;76;25756;-88
2023/07/19 14:33:48;;;;;;;0.80;0.80;;;18.50;99.90;;;;;;1877360;75;25219;-88
2023/07/19 14:36:37;;;;;;;1.50;1.00;;;18.40;99.90;;;;;;1874834;75;25856;-88
2023/07/19 14:39:26;;;;;;;1.90;0.90;;;18.30;99.90;;;;;;1915956;73;25671;-88
2023/07/19 14:42:16;;;;;;;0.93;0.90;;;18.20;99.90;;;;;;1880674;76;25318;-88
2023/07/19 14:45:06;;;;;;;1.30;1.00;;;18.20;99.90;;;;;;1893336;75;25251;-88
2023/07/19 14:47:55;;;;;;;2.20;1.10;;;18.50;99.90;;;;;;1895650;75;25240;-88
2023/07/19 14:50:44;;;;;;;3.60;0.93;;;19.00;99.90;;;;;;1891709;75;25172;-88
2023/07/19 14:53:32;;;;;;;0.80;0.80;;;19.30;99.90;;;;;;1882450;75;25266;-88
2023/07/19 14:59:03;;;;;;;0.90;0.90;;;19.80;99.90;;;;;;1927535;72;27035;-88
2023/07/19 15:01:52;;;;;;;0.90;0.90;;;20.10;99.90;;;;;;1902513;74;25261;-88
2023/07/19 15:07:21;;;;;;;1.63;1.10;;;20.50;99.90;;;;;;1947005;72;27587;-87
2023/07/19 15:10:10;;;;;;;1.03;0.90;;;20.50;99.90;;;;;;1918633;73;25351;-87
2023/07/19 15:12:59;;;;;;;1.13;1.00;;;20.40;99.90;;;;;;1927066;73;25224;-87
2023/07/19 15:15:48;;;;;;;0.93;0.87;;;20.20;99.90;;;;;;1933976;73;25269;-87
2023/07/19 15:18:38;;;;;;;3.57;1.03;;;20.00;99.90;;;;;;1923978;73;25308;-87
2023/07/19 15:21:27;;;;;;;2.63;1.13;;;20.20;99.90;;;;;;1921614;72;25174;-87
2023/07/19 15:24:17;;;;;;;1.67;1.00;;;20.40;99.90;;;;;;1923524;73;25771;-87
2023/07/19 15:27:07;;;;;;;1.67;1.17;;;20.20;99.90;;;;;;1930708;73;25277;-88
2023/07/19 15:29:55;;;;;;;1.87;1.10;;;20.20;99.90;;;;;;1918163;73;25704;-87
2023/07/19 15:32:44;;;;;;;1.80;1.20;;;20.10;99.90;;;;;;1919380;73;25227;-87
2023/07/19 15:35:33;;;;;;;2.07;0.90;;;20.10;99.90;;;;;;1915604;73;25598;-87
2023/07/19 15:41:03;;;;;;;1.73;1.00;;;20.20;99.90;;;;;;1946470;72;27069;-87
2023/07/19 15:46:31;;;;;;;1.10;0.80;;;20.30;99.90;;;;;;1947330;72;26937;-88
2023/07/19 15:49:20;;;;;;;2.60;2.33;;;20.30;99.90;;;;;;1892877;75;25836;-88
2023/07/19 15:52:12;;;;;;;3.43;2.43;;;20.30;99.90;;;;;;1915061;75;25240;-88
2023/07/19 15:55:01;;;;;;;5.43;4.00;;;20.10;99.90;;;;;;1904431;75;25337;-87
2023/07/19 15:57:50;;;;;;;4.17;2.80;;;20.20;99.90;;;;;;1897388;75;25254;-88
2023/07/19 16:00:38;;;;;;;2.03;1.70;;;20.10;99.90;;;;;;1895487;75;25232;-88
2023/07/19 16:03:27;;;;;;;2.40;1.20;;;19.90;99.90;;;;;;1890359;75;25179;-88
2023/07/19 16:06:17;;;;;;;1.20;1.10;;;19.90;99.90;;;;;;1887972;75;25360;-88
2023/07/19 16:09:06;;;;;;;1.30;1.00;;;19.70;99.90;;;;;;1896373;75;25302;-88
2023/07/19 16:11:55;;;;;;;1.00;1.00;;;19.30;99.90;;;;;;1895406;75;25290;-88
2023/07/19 16:14:44;;;;;;;2.57;1.10;;;19.40;99.90;;;;;;1879440;75;25251;-88
2023/07/19 16:17:32;;;;;;;2.53;0.90;;;19.30;99.90;;;;;;1900321;75;25218;-89
2023/07/19 16:20:21;;;;;;;2.17;1.00;;;19.40;99.90;;;;;;1889099;75;25325;-89
2023/07/19 16:25:54;;;;;;;3.93;0.90;;;19.70;99.90;;;;;;1943235;72;27625;-88
2023/07/19 16:31:24;;;;;;;1.73;1.10;;;19.50;99.90;;;;;;2028690;69;26947;-88
2023/07/19 16:34:12;;;;;;;3.17;0.83;;;19.40;99.90;;;;;;1986886;71;25160;-88
2023/07/19 16:37:02;;;;;;;5.57;0.97;;;19.40;99.90;;;;;;1985336;70;25309;-88
2023/07/19 16:42:32;;;;;;;0.90;0.83;;;19.30;99.90;;;;;;1923837;72;27098;-88
2023/07/19 16:45:21;;;;;;;2.50;0.90;;;19.30;99.90;;;;;;1915259;74;25232;-88
2023/07/19 16:48:09;;;;;;;3.47;1.07;;;19.30;99.90;;;;;;1910053;74;25273;-88
2023/07/19 16:53:44;;;;;;;2.20;0.87;;;19.00;99.90;;;;;;1933117;72;26955;-87
2023/07/19 16:59:18;;;;;;;4.97;0.90;;;19.00;99.90;;;;;;1944001;72;26964;-88
2023/07/19 17:02:08;;;;;;;2.13;0.70;;;19.20;99.90;;;;;;1917129;73;25261;-88
2023/07/19 17:07:38;;;;;;;2.93;1.00;;;19.30;99.90;;;;;;1950960;71;27101;-88
2023/07/19 17:10:27;;;;;;;1.53;0.90;;;19.30;99.90;;;;;;1977421;72;25260;-88
2023/07/19 17:13:15;;;;;;;1.67;0.80;;;19.10;99.90;;;;;;1970671;72;25267;-88
2023/07/19 17:16:05;;;;;;;0.83;0.83;;;18.90;99.90;;;;;;1977104;71;25217;-88
2023/07/19 17:18:54;;;;;;;1.77;1.03;;;19.00;99.90;;;;;;1973536;72;25337;-88
2023/07/19 17:21:44;;;;;;;1.57;1.30;;;19.00;99.90;;;;;;1982436;72;25192;-88
2023/07/19 17:24:34;;;;;;;3.57;1.10;;;18.90;99.90;;;;;;1965372;72;25178;-88
2023/07/19 17:27:23;;;;;;;1.73;0.90;;;18.60;99.90;;;;;;1973101;72;25196;-88
2023/07/19 17:30:14;;;;;;;3.00;1.53;;;18.50;99.90;;;;;;1964701;72;25207;-87
2023/07/19 17:35:42;;;;;;;3.33;0.90;;;18.10;99.90;;;;;;1926141;72;27053;-88
2023/07/19 17:41:14;;;;;;;0.80;0.80;;;18.00;99.90;;;;;;1944381;72;27048;-88
2023/07/19 17:46:44;;;;;;;2.10;0.90;;;18.00;99.90;;;;;;1923681;72;27605;-88
2023/07/19 17:49:33;;;;;;;0.70;0.70;;;17.90;99.90;;;;;;1883564;75;25180;-87
2023/07/19 17:52:22;;;;;;;1.47;0.83;;;17.90;99.90;;;;;;1906047;75;25158;-87
2023/07/19 17:55:11;;;;;;;1.23;0.90;;;17.80;99.90;;;;;;1901940;75;25231;-87
2023/07/19 17:58:00;;;;;;;1.13;0.70;;;17.80;99.90;;;;;;1883133;75;25183;-87
2023/07/19 18:00:49;;;;;;;0.80;0.80;;;17.80;99.90;;;;;;1886442;75;25251;-87
2023/07/19 18:03:39;;;;;;;2.87;0.70;;;17.90;99.90;;;;;;1895692;75;25259;-87
2023/07/19 18:06:27;;;;;;;1.43;0.70;;;17.80;99.90;;;;;;1887821;75;25290;-87
2023/07/19 18:09:16;;;;;;;5.47;1.10;;;17.90;99.90;;;;;;1895292;75;25242;-88
2023/07/19 18:12:07;;;;;;;0.90;0.90;;;17.90;99.90;;;;;;1892201;75;25714;-88
2023/07/19 18:14:56;;;;;;;1.23;0.90;;;17.90;99.90;;;;;;1886630;75;25267;-88
2023/07/19 18:17:44;;;;;;;1.40;0.90;;;17.80;99.90;;;;;;1885665;73;25163;-88
2023/07/19 18:20:33;;;;;;;1.87;0.80;;;17.80;99.90;;;;;;1883092;75;25174;-88
2023/07/19 18:23:22;;;;;;;2.67;1.00;;;17.70;99.90;;;;;;1891092;75;25303;-88
2023/07/19 18:26:10;;;;;;;2.97;1.03;;;17.70;99.90;;;;;;1894669;75;25255;-88
2023/07/19 18:28:59;;;;;;;4.10;1.10;;;17.80;99.90;;;;;;1897415;75;25246;-88
2023/07/19 18:31:49;;;;;;;2.83;1.00;;;17.90;99.90;;;;;;1888975;75;25238;-88
2023/07/19 18:34:38;;;;;;;3.87;1.00;;;17.90;99.90;;;;;;1887175;74;25171;-88
2023/07/19 18:37:26;;;;;;;1.33;0.90;;;17.90;99.90;;;;;;1900695;75;25313;-88
2023/07/19 18:42:53;;;;;;;2.37;0.97;;;17.80;99.90;;;;;;1939856;72;27090;-88
2023/07/19 18:45:41;;;;;;;5.87;1.10;;;17.50;99.90;;;;;;1899333;74;25270;-88
2023/07/19 18:48:30;;;;;;;1.30;0.80;;;17.30;99.90;;;;;;1865566;76;25770;-87
2023/07/19 18:51:18;;;;;;;3.63;0.87;;;17.30;99.90;;;;;;1889195;75;25675;-88
2023/07/19 18:54:08;;;;;;;1.70;0.90;;;17.40;99.90;;;;;;1902710;74;25219;-88
2023/07/19 18:56:57;;;;;;;3.77;0.83;;;17.40;99.90;;;;;;1896109;74;25703;-88
2023/07/19 18:59:47;;;;;;;0.70;0.70;;;17.20;99.90;;;;;;1904093;75;25660;-88
2023/07/19 19:02:36;;;;;;;4.43;0.93;;;17.20;99.90;;;;;;1913420;74;25781;-88
2023/07/19 19:05:25;;;;;;;2.77;0.93;;;17.20;99.90;;;;;;1910625;74;25330;-88
2023/07/19 19:11:07;;;;;;;3.30;0.87;;;17.10;99.90;;;;;;1941195;72;27082;-87
2023/07/19 19:13:57;;;;;;;1.27;0.80;;;17.00;99.90;;;;;;1918710;73;25263;-87
2023/07/19 19:16:45;;;;;;;4.70;1.10;;;16.90;99.90;;;;;;1927653;73;25246;-85
2023/07/19 19:19:35;;;;;;;3.83;0.90;;;16.80;99.90;;;;;;1932760;73;25175;-87
2023/07/19 19:22:24;;;;;;;0.73;0.70;;;16.80;99.90;;;;;;1938058;73;25233;-89